createdAt,value
2019-05-09T00:00:04.159Z,11.10
2019-05-09T00:02:38.656Z,11.10
2019-05-09T00:05:05.505Z,11.20
2019-05-09T00:07:33.642Z,11.20
2019-05-09T00:09:59.496Z,11.20
2019-05-09T00:12:25.520Z,11.20
2019-05-09T00:14:53.828Z,11.20
2019-05-09T00:17:19.667Z,11.10
2019-05-09T00:19:45.751Z,11.20
2019-05-09T00:22:13.730Z,11.20
2019-05-09T00:24:39.699Z,11.20
2019-05-09T00:27:05.721Z,11.30
2019-05-09T00:29:53.213Z,11.30
2019-05-09T00:32:30.120Z,11.20
2019-05-09T00:35:04.126Z,11.20
2019-05-09T00:37:48.775Z,11.20
2019-05-09T00:40:14.844Z,11.20
2019-05-09T00:42:41.014Z,11.00
2019-05-09T00:45:08.946Z,11.00
2019-05-09T00:47:35.059Z,11.00
2019-05-09T00:50:01.297Z,10.90
2019-05-09T00:52:27.300Z,10.90
2019-05-09T00:54:57.083Z,11.00
2019-05-09T00:57:38.402Z,11.00
2019-05-09T01:00:06.560Z,11.00
2019-05-09T01:02:34.012Z,10.90
2019-05-09T01:05:04.189Z,10.90
2019-05-09T01:07:30.904Z,10.90
2019-05-09T01:09:56.924Z,10.80
2019-05-09T01:12:23.586Z,10.90
2019-05-09T01:14:50.187Z,11.00
2019-05-09T01:17:18.494Z,11.10
2019-05-09T01:19:47.053Z,11.10
2019-05-09T01:22:23.633Z,10.90
2019-05-09T01:24:50.934Z,10.90
2019-05-09T01:27:17.307Z,10.80
2019-05-09T01:29:49.479Z,10.90
2019-05-09T01:32:34.409Z,10.90
2019-05-09T01:35:03.860Z,10.90
2019-05-09T01:37:34.028Z,10.90
2019-05-09T01:40:08.409Z,10.90
2019-05-09T01:42:36.725Z,10.90
2019-05-09T01:45:04.946Z,10.80
2019-05-09T01:47:30.959Z,10.80
2019-05-09T01:49:57.163Z,10.90
2019-05-09T01:52:23.261Z,10.80
2019-05-09T01:54:49.316Z,10.90
2019-05-09T01:57:15.391Z,11.00
2019-05-09T01:59:41.403Z,11.00
2019-05-09T02:02:08.921Z,11.00
2019-05-09T02:04:35.184Z,11.00
2019-05-09T02:07:04.194Z,11.00
2019-05-09T02:09:30.786Z,11.00
2019-05-09T02:11:56.927Z,11.00
2019-05-09T02:14:31.289Z,11.00
2019-05-09T02:17:00.577Z,11.00
2019-05-09T02:19:33.166Z,11.00
2019-05-09T02:21:59.262Z,10.90
2019-05-09T02:24:25.313Z,10.90
2019-05-09T02:26:53.327Z,10.80
2019-05-09T02:29:19.627Z,10.80
2019-05-09T02:31:47.647Z,10.80
2019-05-09T02:34:18.514Z,10.80
2019-05-09T02:36:49.613Z,10.70
2019-05-09T02:39:20.031Z,10.70
2019-05-09T02:42:04.917Z,10.70
2019-05-09T02:44:21.378Z,10.70
2019-05-09T02:46:49.719Z,10.70
2019-05-09T02:49:15.734Z,10.70
2019-05-09T02:51:41.864Z,10.60
2019-05-09T02:54:09.767Z,10.60
2019-05-09T02:56:38.466Z,10.60
2019-05-09T02:59:09.670Z,10.60
2019-05-09T03:01:49.477Z,10.60
2019-05-09T03:04:18.679Z,10.60
2019-05-09T03:06:44.404Z,10.60
2019-05-09T03:09:10.698Z,10.60
2019-05-09T03:11:38.734Z,10.60
2019-05-09T03:14:04.665Z,10.50
2019-05-09T03:16:31.023Z,10.60
2019-05-09T03:18:58.592Z,10.50
2019-05-09T03:21:29.879Z,10.60
2019-05-09T03:23:54.595Z,10.60
2019-05-09T03:26:25.091Z,10.60
2019-05-09T03:28:59.126Z,10.60
2019-05-09T03:31:29.805Z,10.60
2019-05-09T03:33:59.497Z,10.60
2019-05-09T03:36:24.503Z,10.60
2019-05-09T03:38:50.515Z,10.60
2019-05-09T03:41:17.711Z,10.60
2019-05-09T03:43:44.037Z,10.60
2019-05-09T03:46:11.944Z,10.70
2019-05-09T03:48:43.291Z,10.70
2019-05-09T03:51:09.299Z,10.70
2019-05-09T03:53:35.309Z,10.70
2019-05-09T03:56:03.243Z,10.70
2019-05-09T03:58:29.255Z,10.70
2019-05-09T04:00:55.277Z,10.70
2019-05-09T04:03:21.497Z,10.70
2019-05-09T04:05:56.701Z,10.70
2019-05-09T04:08:17.931Z,10.70
2019-05-09T04:10:47.004Z,10.70
2019-05-09T04:13:13.419Z,10.70
2019-05-09T04:15:39.439Z,10.80
2019-05-09T04:18:05.549Z,10.80
2019-05-09T04:20:31.562Z,10.80
2019-05-09T04:22:59.461Z,10.80
2019-05-09T04:25:27.493Z,10.80
2019-05-09T04:27:53.672Z,10.90
2019-05-09T04:30:19.687Z,10.90
2019-05-09T04:32:47.659Z,11.00
2019-05-09T04:35:13.655Z,11.10
2019-05-09T04:37:39.668Z,11.20
2019-05-09T04:40:08.082Z,11.30
2019-05-09T04:42:34.983Z,11.40
2019-05-09T04:45:07.089Z,11.60
2019-05-09T04:47:41.374Z,11.60
2019-05-09T04:50:04.304Z,11.80
2019-05-09T04:52:30.526Z,11.90
2019-05-09T04:55:07.747Z,12.00
2019-05-09T04:57:42.280Z,12.00
2019-05-09T05:00:24.835Z,12.00
2019-05-09T05:02:52.070Z,12.00
2019-05-09T05:05:18.190Z,12.00
2019-05-09T05:07:44.315Z,11.90
2019-05-09T05:10:12.641Z,12.00
2019-05-09T05:12:39.797Z,11.90
2019-05-09T05:15:07.998Z,12.00
2019-05-09T05:17:33.952Z,11.90
2019-05-09T05:20:00.980Z,11.90
2019-05-09T05:22:29.570Z,11.90
2019-05-09T05:25:00.098Z,12.00
2019-05-09T05:27:27.855Z,12.00
2019-05-09T05:29:54.239Z,12.10
2019-05-09T05:32:31.064Z,12.10
2019-05-09T05:34:58.999Z,12.10
2019-05-09T05:37:25.335Z,12.30
2019-05-09T05:39:51.347Z,12.20
2019-05-09T05:42:17.675Z,12.20
2019-05-09T05:44:43.903Z,12.10
2019-05-09T05:47:11.834Z,12.00
2019-05-09T05:49:38.525Z,12.10
2019-05-09T05:52:04.747Z,12.10
2019-05-09T05:54:30.774Z,12.20
2019-05-09T05:56:57.819Z,12.40
2019-05-09T05:59:24.103Z,12.50
2019-05-09T06:01:50.129Z,12.50
2019-05-09T06:04:18.477Z,12.60
2019-05-09T06:06:44.163Z,12.50
2019-05-09T06:09:10.221Z,12.60
2019-05-09T06:11:38.440Z,12.60
2019-05-09T06:14:10.954Z,12.70
2019-05-09T06:16:32.558Z,12.70
2019-05-09T06:18:59.900Z,12.60
2019-05-09T06:21:28.100Z,12.60
2019-05-09T06:23:53.833Z,12.70
2019-05-09T06:26:19.868Z,12.80
2019-05-09T06:28:48.004Z,12.90
2019-05-09T06:31:13.850Z,12.90
2019-05-09T06:33:46.095Z,13.00
2019-05-09T06:36:08.461Z,12.80
2019-05-09T06:38:34.855Z,12.60
2019-05-09T06:41:01.015Z,12.50
2019-05-09T06:43:29.153Z,12.60
2019-05-09T06:46:01.574Z,12.70
2019-05-09T06:48:28.403Z,12.80
2019-05-09T06:50:54.565Z,12.80
2019-05-09T06:53:20.739Z,13.00
2019-05-09T06:55:47.586Z,13.10
2019-05-09T06:58:34.091Z,12.70
2019-05-09T07:01:19.879Z,12.70
2019-05-09T07:04:04.486Z,12.70
2019-05-09T07:06:48.434Z,12.70
2019-05-09T07:09:25.051Z,12.80
2019-05-09T07:11:51.089Z,12.80
2019-05-09T07:14:33.896Z,13.00
2019-05-09T07:16:58.704Z,13.10
2019-05-09T07:19:24.726Z,13.20
2019-05-09T07:22:05.479Z,13.20
2019-05-09T07:24:37.785Z,13.10
2019-05-09T07:27:11.756Z,13.00
2019-05-09T07:29:37.797Z,12.90
2019-05-09T07:32:13.891Z,13.00
2019-05-09T07:34:51.111Z,13.10
2019-05-09T07:37:18.595Z,13.20
2019-05-09T07:39:49.634Z,13.10
2019-05-09T07:42:17.943Z,13.10
2019-05-09T07:44:48.314Z,13.00
2019-05-09T07:47:11.645Z,13.00
2019-05-09T07:49:37.815Z,12.80
2019-05-09T07:52:09.418Z,12.50
2019-05-09T07:54:33.031Z,12.60
2019-05-09T07:56:59.031Z,12.60
2019-05-09T07:59:27.283Z,12.70
2019-05-09T08:01:52.994Z,12.50
2019-05-09T08:04:19.051Z,12.60
2019-05-09T08:06:45.134Z,12.80
2019-05-09T08:09:11.220Z,13.10
2019-05-09T08:11:37.705Z,13.30
2019-05-09T08:14:04.327Z,13.60
2019-05-09T08:16:30.734Z,13.90
2019-05-09T08:18:57.759Z,13.90
2019-05-09T08:21:24.255Z,14.00
2019-05-09T08:23:50.280Z,14.00
2019-05-09T08:26:18.672Z,13.60
2019-05-09T08:28:44.492Z,13.50
2019-05-09T08:31:10.560Z,13.40
2019-05-09T08:33:38.064Z,13.20
2019-05-09T08:36:04.505Z,13.20
2019-05-09T08:38:30.592Z,13.20
2019-05-09T08:41:08.774Z,13.10
2019-05-09T08:43:37.610Z,13.00
2019-05-09T08:46:03.593Z,13.40
2019-05-09T08:48:29.650Z,13.90
2019-05-09T08:50:58.350Z,14.40
2019-05-09T08:53:24.734Z,14.50
2019-05-09T08:55:51.188Z,14.20
2019-05-09T08:58:19.667Z,14.00
2019-05-09T09:00:45.444Z,14.20
2019-05-09T09:03:19.596Z,14.20
2019-05-09T09:05:45.610Z,14.40
2019-05-09T09:08:11.620Z,14.80
2019-05-09T09:10:38.692Z,14.90
2019-05-09T09:13:04.920Z,15.20
2019-05-09T09:16:02.262Z,15.30
2019-05-09T09:18:04.643Z,15.40
2019-05-09T09:20:30.944Z,15.30
2019-05-09T09:22:58.235Z,15.30
2019-05-09T09:25:24.679Z,15.40
2019-05-09T09:27:51.224Z,15.50
2019-05-09T09:30:24.116Z,15.50
2019-05-09T09:32:47.742Z,15.70
2019-05-09T09:35:13.161Z,16.10
2019-05-09T09:37:48.298Z,16.40
2019-05-09T09:40:08.626Z,16.80
2019-05-09T09:42:35.126Z,16.80
2019-05-09T09:45:01.252Z,16.80
2019-05-09T09:47:28.609Z,16.90
2019-05-09T09:49:55.160Z,16.60
2019-05-09T09:52:21.435Z,16.40
2019-05-09T09:54:48.201Z,16.80
2019-05-09T09:57:14.928Z,16.80
2019-05-09T09:59:48.381Z,16.60
2019-05-09T10:02:17.435Z,16.80
2019-05-09T10:04:54.126Z,16.60
2019-05-09T10:07:20.319Z,16.70
2019-05-09T10:09:48.004Z,16.70
2019-05-09T10:12:14.266Z,16.90
2019-05-09T10:14:42.587Z,17.30
2019-05-09T10:17:32.485Z,17.10
2019-05-09T10:20:00.771Z,17.10
2019-05-09T10:22:34.324Z,17.10
2019-05-09T10:25:00.453Z,17.20
2019-05-09T10:27:28.385Z,17.80
2019-05-09T10:29:54.616Z,18.40
2019-05-09T10:32:20.631Z,18.70
2019-05-09T10:34:48.820Z,18.70
2019-05-09T10:37:14.708Z,18.20
2019-05-09T10:39:40.743Z,18.10
2019-05-09T10:42:28.594Z,17.80
2019-05-09T10:45:08.395Z,17.70
2019-05-09T10:47:37.777Z,17.40
2019-05-09T10:50:05.667Z,17.00
2019-05-09T10:52:31.684Z,17.00
2019-05-09T10:55:04.687Z,16.90
2019-05-09T10:57:32.374Z,17.70
2019-05-09T10:59:58.655Z,19.10
2019-05-09T11:02:25.111Z,21.90
2019-05-09T11:04:51.210Z,24.50
2019-05-09T11:07:18.199Z,25.90
2019-05-09T11:09:44.465Z,27.30
2019-05-09T11:12:10.511Z,29.40
2019-05-09T11:14:37.662Z,29.20
2019-05-09T11:17:10.647Z,27.70
2019-05-09T11:19:31.993Z,26.70
2019-05-09T11:21:59.917Z,25.60
2019-05-09T11:24:41.530Z,25.20
2019-05-09T11:26:54.262Z,24.20
2019-05-09T11:29:20.281Z,23.30
2019-05-09T11:31:47.753Z,23.30
2019-05-09T11:34:14.028Z,22.10
2019-05-09T11:36:40.039Z,21.60
2019-05-09T11:39:10.620Z,21.10
2019-05-09T11:41:38.160Z,19.70
2019-05-09T11:44:03.382Z,19.70
2019-05-09T11:46:29.487Z,20.20
2019-05-09T11:48:55.556Z,20.70
2019-05-09T11:51:22.893Z,20.80
2019-05-09T11:53:49.091Z,20.70
2019-05-09T11:56:15.116Z,21.00
2019-05-09T11:58:42.069Z,22.00
2019-05-09T12:01:08.422Z,25.00
2019-05-09T12:03:34.488Z,25.00
2019-05-09T12:06:00.495Z,23.40
2019-05-09T12:08:26.556Z,22.60
2019-05-09T12:10:52.571Z,24.80
2019-05-09T12:13:18.924Z,27.30
2019-05-09T12:15:44.979Z,26.10
2019-05-09T12:18:11.790Z,26.40
2019-05-09T12:20:37.916Z,29.80
2019-05-09T12:23:04.263Z,31.50
2019-05-09T12:25:30.288Z,32.60
2019-05-09T12:27:58.485Z,34.30
2019-05-09T12:30:24.553Z,32.80
2019-05-09T12:32:54.492Z,30.30
2019-05-09T12:35:20.528Z,27.70
2019-05-09T12:37:48.385Z,24.60
2019-05-09T12:40:14.549Z,22.50
2019-05-09T12:42:40.588Z,21.90
2019-05-09T12:45:08.325Z,22.90
2019-05-09T12:47:34.613Z,25.20
2019-05-09T12:50:02.941Z,29.20
2019-05-09T12:52:29.188Z,31.50
2019-05-09T12:54:55.204Z,32.60
2019-05-09T12:57:21.225Z,31.50
2019-05-09T12:59:51.749Z,29.90
2019-05-09T13:02:17.631Z,29.20
2019-05-09T13:04:43.406Z,28.20
2019-05-09T13:07:09.891Z,26.40
2019-05-09T13:09:35.948Z,25.10
2019-05-09T13:12:02.128Z,24.00
2019-05-09T13:14:28.683Z,22.90
2019-05-09T13:16:59.207Z,22.10
2019-05-09T13:19:38.151Z,21.40
2019-05-09T13:22:04.151Z,21.50
2019-05-09T13:24:30.215Z,23.60
2019-05-09T13:26:56.327Z,24.50
2019-05-09T13:29:25.885Z,24.50
2019-05-09T13:31:51.915Z,24.00
2019-05-09T13:34:18.864Z,23.40
2019-05-09T13:36:45.266Z,22.50
2019-05-09T13:39:12.647Z,22.10
2019-05-09T13:41:38.697Z,22.00
2019-05-09T13:44:07.016Z,21.80
2019-05-09T13:46:32.729Z,21.60
2019-05-09T13:49:10.787Z,21.30
2019-05-09T13:51:26.828Z,21.10
2019-05-09T13:53:53.762Z,20.80
2019-05-09T13:56:19.961Z,20.60
2019-05-09T13:58:48.562Z,20.40
2019-05-09T14:01:22.983Z,20.30
2019-05-09T14:03:49.241Z,20.10
2019-05-09T14:06:15.439Z,19.80
2019-05-09T14:08:41.749Z,19.90
2019-05-09T14:11:08.544Z,19.70
2019-05-09T14:13:34.714Z,19.40
2019-05-09T14:16:15.580Z,19.50
2019-05-09T14:18:28.810Z,19.60
2019-05-09T14:20:54.819Z,19.50
2019-05-09T14:23:21.692Z,19.50
2019-05-09T14:25:51.333Z,19.30
2019-05-09T14:28:15.669Z,19.30
2019-05-09T14:30:41.779Z,19.50
2019-05-09T14:33:08.313Z,19.60
2019-05-09T14:35:34.514Z,19.90
2019-05-09T14:38:00.578Z,20.60
2019-05-09T14:40:28.084Z,21.30
2019-05-09T14:42:57.765Z,21.30
2019-05-09T14:45:24.103Z,21.20
2019-05-09T14:47:50.153Z,21.00
2019-05-09T14:50:18.071Z,21.20
2019-05-09T14:52:44.137Z,21.20
2019-05-09T14:55:10.398Z,21.40
2019-05-09T14:57:38.408Z,21.50
2019-05-09T15:00:07.839Z,21.80
2019-05-09T15:02:33.590Z,23.30
2019-05-09T15:04:59.606Z,25.40
2019-05-09T15:07:28.272Z,27.90
2019-05-09T15:09:56.209Z,28.80
2019-05-09T15:12:21.845Z,29.90
2019-05-09T15:14:48.070Z,31.80
2019-05-09T15:17:14.209Z,31.70
2019-05-09T15:19:55.298Z,31.60
2019-05-09T15:22:08.808Z,32.40
2019-05-09T15:24:35.012Z,33.30
2019-05-09T15:27:01.040Z,34.30
2019-05-09T15:29:29.056Z,34.30
2019-05-09T15:31:55.381Z,33.40
2019-05-09T15:34:23.410Z,31.30
2019-05-09T15:36:49.502Z,29.20
2019-05-09T15:39:18.357Z,27.10
2019-05-09T15:41:44.678Z,25.40
2019-05-09T15:44:12.715Z,24.20
2019-05-09T15:46:53.074Z,23.60
2019-05-09T15:49:19.405Z,23.00
2019-05-09T15:51:47.660Z,22.30
2019-05-09T15:54:13.471Z,21.80
2019-05-09T15:56:39.516Z,21.40
2019-05-09T15:59:05.556Z,21.20
2019-05-09T16:01:31.599Z,21.00
2019-05-09T16:03:58.110Z,20.80
2019-05-09T16:06:24.169Z,20.50
2019-05-09T16:08:50.195Z,20.20
2019-05-09T16:11:17.995Z,20.10
2019-05-09T16:13:44.223Z,19.80
2019-05-09T16:16:17.561Z,19.60
2019-05-09T16:18:48.579Z,19.20
2019-05-09T16:21:27.816Z,19.10
2019-05-09T16:24:01.562Z,19.10
2019-05-09T16:26:29.508Z,19.20
2019-05-09T16:29:05.464Z,19.30
2019-05-09T16:31:39.619Z,19.20
2019-05-09T16:34:12.283Z,19.10
2019-05-09T16:36:41.171Z,19.10
2019-05-09T16:39:11.525Z,19.20
2019-05-09T16:41:39.642Z,19.30
2019-05-09T16:44:09.470Z,19.30
2019-05-09T16:46:37.792Z,19.40
2019-05-09T16:49:05.211Z,19.40
2019-05-09T16:51:31.380Z,19.40
2019-05-09T16:53:58.393Z,19.40
2019-05-09T16:56:24.763Z,19.40
2019-05-09T16:58:50.791Z,19.60
2019-05-09T17:01:18.491Z,19.60
2019-05-09T17:03:45.464Z,19.70
2019-05-09T17:06:11.623Z,19.60
2019-05-09T17:08:38.544Z,19.60
2019-05-09T17:11:07.745Z,19.40
2019-05-09T17:13:33.990Z,19.30
2019-05-09T17:16:00.085Z,19.20
2019-05-09T17:18:28.325Z,19.00
2019-05-09T17:21:03.070Z,18.80
2019-05-09T17:23:29.567Z,18.70
2019-05-09T17:25:57.904Z,18.60
2019-05-09T17:28:24.159Z,18.40
2019-05-09T17:30:50.318Z,18.30
2019-05-09T17:33:18.235Z,18.20
2019-05-09T17:35:48.422Z,18.00
2019-05-09T17:38:14.929Z,18.00
2019-05-09T17:40:48.624Z,17.80
2019-05-09T17:43:15.027Z,17.70
2019-05-09T17:45:51.213Z,17.60
2019-05-09T17:48:18.383Z,17.40
2019-05-09T17:50:53.473Z,17.30
2019-05-09T17:53:19.507Z,17.30
2019-05-09T17:55:47.750Z,17.10
2019-05-09T17:58:26.208Z,17.00
2019-05-09T18:00:41.772Z,16.80
2019-05-09T18:03:07.791Z,16.70
2019-05-09T18:05:35.962Z,16.50
2019-05-09T18:08:03.047Z,16.40
2019-05-09T18:10:29.059Z,16.30
2019-05-09T18:12:55.196Z,16.30
2019-05-09T18:15:21.295Z,16.30
2019-05-09T18:17:47.995Z,16.20
2019-05-09T18:20:14.681Z,16.10
2019-05-09T18:22:48.070Z,16.10
2019-05-09T18:25:13.311Z,16.00
2019-05-09T18:27:40.826Z,15.90
2019-05-09T18:30:06.839Z,15.80
2019-05-09T18:32:54.777Z,15.80
2019-05-09T18:35:22.736Z,15.80
2019-05-09T18:37:48.755Z,15.70
2019-05-09T18:40:14.864Z,15.70
2019-05-09T18:42:40.884Z,15.70
2019-05-09T18:45:07.939Z,15.60
2019-05-09T18:47:34.300Z,15.60
2019-05-09T18:50:00.490Z,15.60
2019-05-09T18:52:26.523Z,15.60
2019-05-09T18:54:53.522Z,15.60
2019-05-09T18:57:19.531Z,15.60
2019-05-09T18:59:45.547Z,15.50
2019-05-09T19:02:15.999Z,15.50
2019-05-09T19:04:42.051Z,15.50
2019-05-09T19:07:21.127Z,15.50
2019-05-09T19:09:37.643Z,15.50
2019-05-09T19:12:03.684Z,15.40
2019-05-09T19:14:29.801Z,15.40
2019-05-09T19:17:00.734Z,15.40
2019-05-09T19:19:45.579Z,15.40
2019-05-09T19:22:22.166Z,15.40
2019-05-09T19:24:39.974Z,15.40
2019-05-09T19:27:06.003Z,15.40
2019-05-09T19:29:32.057Z,15.40
2019-05-09T19:31:58.359Z,15.50
2019-05-09T19:34:24.384Z,15.40
2019-05-09T19:36:50.742Z,15.50
2019-05-09T19:39:16.759Z,15.40
2019-05-09T19:41:42.777Z,15.40
2019-05-09T19:44:08.811Z,15.30
2019-05-09T19:46:34.884Z,15.30
2019-05-09T19:49:00.959Z,15.20
2019-05-09T19:51:27.059Z,15.20
2019-05-09T19:53:53.188Z,15.10
2019-05-09T19:56:19.210Z,15.00
2019-05-09T19:58:45.670Z,15.00
2019-05-09T20:01:11.787Z,15.00
2019-05-09T20:03:37.805Z,14.90
2019-05-09T20:06:03.846Z,14.80
2019-05-09T20:08:29.869Z,14.80
2019-05-09T20:11:10.104Z,14.70
2019-05-09T20:13:38.360Z,14.60
2019-05-09T20:16:04.395Z,14.50
2019-05-09T20:18:30.703Z,14.50
2019-05-09T20:20:56.726Z,14.50
2019-05-09T20:23:22.723Z,14.40
2019-05-09T20:25:49.104Z,14.40
2019-05-09T20:28:21.251Z,14.40
2019-05-09T20:30:47.273Z,14.40
2019-05-09T20:33:13.751Z,14.40
2019-05-09T20:35:39.826Z,14.30
2019-05-09T20:38:05.836Z,14.40
2019-05-09T20:40:32.067Z,14.30
2019-05-09T20:42:58.082Z,14.30
2019-05-09T20:45:24.386Z,14.30
2019-05-09T20:47:50.518Z,14.30
2019-05-09T20:50:16.589Z,14.40
2019-05-09T20:52:42.931Z,14.40
2019-05-09T20:55:08.962Z,14.40
2019-05-09T20:57:42.672Z,14.30
2019-05-09T21:00:08.771Z,14.30
2019-05-09T21:02:40.668Z,14.40
2019-05-09T21:05:12.259Z,14.30
2019-05-09T21:07:38.876Z,14.40
2019-05-09T21:10:20.164Z,14.40
2019-05-09T21:12:54.724Z,14.40
2019-05-09T21:15:24.926Z,14.40
2019-05-09T21:17:57.369Z,14.30
2019-05-09T21:20:23.388Z,14.30
2019-05-09T21:22:58.336Z,14.30
2019-05-09T21:28:23.413Z,14.30
2019-05-09T21:31:00.452Z,14.30
2019-05-09T21:33:46.244Z,14.30
2019-05-09T21:36:16.212Z,14.30
2019-05-09T21:38:42.208Z,14.40
2019-05-09T21:41:08.297Z,14.40
2019-05-09T21:43:42.870Z,14.40
2019-05-09T21:46:13.995Z,14.40
2019-05-09T21:48:42.907Z,14.40
2019-05-09T21:51:11.992Z,14.40
2019-05-09T21:53:40.736Z,14.40
2019-05-09T21:56:11.137Z,14.40
2019-05-09T21:58:37.175Z,14.30
2019-05-09T22:01:03.266Z,14.40
2019-05-09T22:03:31.470Z,14.30
2019-05-09T22:05:57.539Z,14.30
2019-05-09T22:08:23.563Z,14.30
2019-05-09T22:10:49.627Z,14.30
2019-05-09T22:13:15.955Z,14.20
2019-05-09T22:15:41.984Z,14.30
2019-05-09T22:18:08.031Z,14.20
2019-05-09T22:20:34.083Z,14.20
2019-05-09T22:23:00.165Z,14.10
2019-05-09T22:25:26.313Z,14.00
2019-05-09T22:27:52.424Z,14.10
2019-05-09T22:30:18.455Z,14.00
2019-05-09T22:32:48.357Z,14.00
2019-05-09T22:35:14.473Z,14.00
2019-05-09T22:37:40.491Z,14.00
2019-05-09T22:40:06.536Z,14.00
2019-05-09T22:42:32.551Z,13.90
2019-05-09T22:44:58.578Z,13.80
2019-05-09T22:47:24.631Z,13.70
2019-05-09T22:49:52.745Z,13.70
2019-05-09T22:52:18.935Z,13.70
2019-05-09T22:54:45.003Z,13.60
2019-05-09T22:57:11.005Z,13.60
2019-05-09T22:59:37.049Z,13.60
2019-05-09T23:02:06.691Z,13.60
2019-05-09T23:04:31.076Z,13.50
2019-05-09T23:06:57.357Z,13.60
2019-05-09T23:09:23.388Z,13.60
2019-05-09T23:11:49.735Z,13.60
2019-05-09T23:14:16.446Z,13.60
2019-05-09T23:16:42.475Z,13.60
2019-05-09T23:19:08.491Z,13.60
2019-05-09T23:21:34.623Z,13.60
2019-05-09T23:24:02.579Z,13.60
2019-05-09T23:26:28.580Z,13.60
2019-05-09T23:28:54.633Z,13.60
2019-05-09T23:31:22.650Z,13.60
2019-05-09T23:33:48.693Z,13.60
2019-05-09T23:36:14.710Z,13.60
2019-05-09T23:38:59.647Z,13.60
2019-05-09T23:41:25.673Z,13.60
2019-05-09T23:43:51.707Z,13.50
2019-05-09T23:46:18.111Z,13.50
2019-05-09T23:48:44.116Z,13.40
2019-05-09T23:51:10.184Z,13.40
2019-05-09T23:53:47.119Z,13.40
2019-05-09T23:56:22.987Z,13.40
2019-05-09T23:59:08.767Z,13.30
